• Join FlightAware (Why Join?)
  • Login
  • US Flag 
08:46PM EDT


 

Airport Tracker/Info


-or-


 

Live Flight TrackerFlight Track Log ✈ N489QS ✈ 09-Jul-2013 ✈ KBCT - KTEB

Flight Track Log - Related Links

Times and Time Zones

All times are in EDT time to prevent confusion due to time zone crossing. See the N489QS flight status page for this flight to view local times or setup timezone preferences in your user account.

Time Position Orientation Groundspeed Altitude Reporting Facility
EDT Latitude Longitude Course Direction KTS MPH feet Rate Location/Type
01:59PM 26.5736 -79.9694 61° Northeast 285 328 10,600  Level Miami Center
02:00PM 26.6514 -79.9481 14° North 303 349 12,000 1,680 Climbing Miami Center
02:01PM 26.7564 -79.9206 13° North 339 390 14,000 960 Climbing Miami Center
02:02PM 26.8331 -79.8481 40° Northeast 352 405 14,000  Level Miami Center
02:03PM 26.9052 -79.7255 53° Northeast  Level FlightAware Approximate
02:03PM 26.8828 -79.7703 54° Northeast 345 397 14,000  Level Miami Center
02:04PM 26.9737 -79.6192 61° Northeast  Level FlightAware Approximate
02:04PM 26.9450 -79.6856 51° Northeast 350 403 14,000  Level Miami Center
02:05PM 27.0156 -79.5917 50° Northeast 350 403 14,000 600 Level Miami Center
02:06PM 27.0697 -79.4972 57° Northeast 350 403 15,200 1,860 Climbing Miami Center
02:07PM 27.1236 -79.4028 57° Northeast 350 403 17,800 2,100 Climbing Miami Center
02:08PM 27.1686 -79.3292 55° Northeast 356 410 19,500 2,040 Climbing Miami Center
02:09PM 27.2331 -79.2253 55° Northeast 367 422 21,900 1,740 Climbing Miami Center
02:10PM 27.3078 -79.1147 53° Northeast 385 443 23,000 1,140 Climbing Miami Center
02:11PM 27.3989 -79.0369 37° Northeast 402 463 24,200 1,320 Climbing Miami Center
02:12PM 27.4956 -78.9872 25° Northeast 410 472 25,700 1,380 Climbing Miami Center
02:13PM 27.6050 -78.9261 26° Northeast 427 491 27,000 1,200 Climbing Miami Center
02:14PM 27.7272 -78.8625 25° Northeast 433 498 28,200 1,200 Climbing Miami Center
02:15PM 27.8428 -78.7986 26° Northeast 445 512 29,500 1,500 Climbing Miami Center
02:16PM 27.9436 -78.7464 25° Northeast 445 512 31,200 1,560 Climbing Miami Center
02:17PM 28.0653 -78.7061 16° North 445 512 32,700 1,560 Climbing Miami Center
02:18PM 28.1908 -78.6917 North 451 519 34,400 1,500 Climbing Miami Center
02:19PM 28.3183 -78.6772 North 451 519 35,800 1,500 Climbing Miami Center
02:20PM 28.4397 -78.6603 North 444 511 37,400 1,560 Climbing Miami Center
02:21PM 28.5608 -78.6481 North 444 511 39,000 1,680 Climbing Miami Center
02:22PM 28.6819 -78.6311 North 444 511 40,800 960 Climbing Miami Center
02:23PM 28.8075 -78.6189 North 439 505 41,000 60 Climbing Miami Center
02:24PM 28.9308 -78.6019 North 444 511 41,000  Level Miami Center
02:25PM 29.0519 -78.5869 North 444 511 41,000  Level Miami Center
02:26PM 29.1731 -78.5700 North 447 514 41,000  Level Miami Center
02:27PM 29.2986 -78.5575 North 442 509 41,000  Level Miami Center
02:28PM 29.4239 -78.5406 North 442 509 41,000  Level Miami Center
02:29PM 29.5492 -78.5281 North 447 514 41,000  Level Miami Center
02:29PM 29.6381 -78.5083 11° North 451 519 41,000  Level Jacksonville Center
02:30PM 29.7628 -78.4906 North 441 507 41,000  Level Jacksonville Center
02:31PM 29.8831 -78.4708 North 441 507 41,000  Level Jacksonville Center
02:32PM 30.0119 -78.4578 North 446 513 41,000  Level Jacksonville Center
02:33PM 30.1325 -78.4450 North 441 507 41,000  Level Jacksonville Center
02:34PM 30.2614 -78.4269 North 435 501 41,000  Level Jacksonville Center
02:35PM 30.3756 -78.4122 North 420 483 41,000  Level Jacksonville Center
02:36PM 30.4961 -78.3967 North 420 483 41,000  Level Jacksonville Center
02:37PM 30.6125 -78.3817 North 423 487 41,000  Level Jacksonville Center
02:38PM 30.7308 -78.3664 North 423 487 41,000  Level Jacksonville Center
02:39PM 30.8514 -78.3508 North 423 487 41,000  Level Jacksonville Center
02:40PM 30.9700 -78.3356 North 428 493 41,000  Level Jacksonville Center
02:41PM 31.0883 -78.3225 North 423 487 41,000  Level Jacksonville Center
02:42PM 31.2089 -78.3044 North 423 487 41,000  Level Jacksonville Center
02:43PM 31.3253 -78.2892 North 423 487 41,000  Level Jacksonville Center
02:44PM 31.4436 -78.2758 North 428 493 41,000  Level Jacksonville Center
02:45PM 31.5617 -78.2506 10° North 423 487 41,000  Level Jacksonville Center
02:46PM 31.6825 -78.2397 North 423 487 41,000  Level Jacksonville Center
02:47PM 31.7986 -78.2192 North 423 487 41,000  Level Jacksonville Center
02:48PM 31.9169 -78.2033 North 423 487 41,000  Level Jacksonville Center
02:49PM 32.0356 -78.1925 North 423 487 41,000  Level Jacksonville Center
02:50PM 32.1519 -78.1817 North 423 487 41,000  Level Jacksonville Center
02:51PM 32.2722 -78.1631 North 423 487 41,000  Level Jacksonville Center
02:52PM 32.3864 -78.1400 10° North 423 487 41,000  Level Jacksonville Center
02:53PM 32.5050 -78.1314 North 423 487 41,000  Level Jacksonville Center
02:54PM 32.6211 -78.1128 North 423 487 41,000  Level Jacksonville Center
02:55PM 32.7394 -78.0967 North 423 487 41,000  Level Jacksonville Center
02:56PM 32.8578 -78.0781 North 423 487 41,000  Level Jacksonville Center
02:57PM 32.9783 -78.0642 North 423 487 41,000  Level Jacksonville Center
02:58PM 33.0986 -78.0478 North 423 487 41,000  Level Jacksonville Center
03:01PM 33.3944 -78.0092 North 451 519 41,000  Level Washington Center
03:02PM 33.5136 -77.9925 North 451 519 41,000  Level Washington Center
03:03PM 33.6350 -77.9761 North 445 512 41,000  Level Washington Center
03:04PM 33.7519 -77.9594 North 439 505 41,000  Level Washington Center
03:05PM 33.8461 -77.9472 North 428 493 41,000  Level Washington Center
03:06PM 33.9967 -77.9264 North 435 501 41,000  Level Washington Center
03:07PM 34.1181 -77.9172 North 426 490 41,000  Level Washington Center
03:08PM 34.2411 -77.9158 North 426 490 41,000  Level Washington Center
03:09PM 34.3558 -77.9164 360° North 431 496 41,000  Level Washington Center
03:10PM 34.4539 -77.9142 North 436 502 41,000  Level Washington Center
03:11PM 34.6000 -77.9108 North 436 502 41,000  Level Washington Center
03:12PM 34.7211 -77.9067 North 436 502 41,000  Level Washington Center
03:13PM 34.8486 -77.8975 North 431 496 41,000  Level Washington Center
03:14PM 34.9697 -77.8958 North 426 490 41,000  Level Washington Center
03:15PM 35.0908 -77.8919 North 426 490 41,000  Level Washington Center
03:16PM 35.2097 -77.8900 North 426 490 41,000  Level Washington Center
03:17PM 35.3328 -77.8858 North 426 490 41,000  Level Washington Center
03:18PM 35.4539 -77.8819 North 426 490 41,000  Level Washington Center
03:19PM 35.5731 -77.8775 North 426 490 41,000  Level Washington Center
03:20PM 35.6983 -77.8761 North 426 490 41,000  Level Washington Center
03:21PM 35.8214 -77.8744 North 426 490 41,000  Level Washington Center
03:22PM 35.9444 -77.8728 North 431 496 41,000  Level Washington Center
03:23PM 36.0678 -77.8686 North 437 503 41,000  Level Washington Center
03:24PM 36.1889 -77.8644 North 437 503 41,000  Level Washington Center
03:25PM 36.3097 -77.8628 North 437 503 41,000  Level Washington Center
03:26PM 36.4253 -77.8250 15° North 430 495 41,000  Level Washington Center
03:27PM 36.5242 -77.7761 22° Northeast 410 472 41,000  Level Washington Center
03:28PM 36.6378 -77.7222 21° North 420 483 41,000  Level Washington Center
03:29PM 36.7514 -77.6708 20° North 432 497 41,000  Level Washington Center
03:30PM 36.8692 -77.6169 20° North 432 497 41,000  Level Washington Center
03:31PM 36.9847 -77.5653 20° North 432 497 41,000  Level Washington Center
03:32PM 37.0983 -77.5136 20° North 432 497 41,000  Level Washington Center
03:33PM 37.2139 -77.4592 21° North 432 497 41,000  Level Washington Center
03:34PM 37.3272 -77.4069 20° North 432 497 41,000  Level Washington Center
03:35PM 37.4428 -77.3522 21° North 432 497 41,000  Level Washington Center
03:36PM 37.5583 -77.2972 21° North 432 497 41,000  Level Washington Center
03:37PM 37.6739 -77.2422 21° North 432 497 41,000 -120 Level Washington Center
03:38PM 37.7914 -77.1869 20° North 432 497 40,800 -840 Descending Washington Center
03:39PM 37.9008 -77.1128 28° Northeast 432 497 39,400 -1,500 Descending Washington Center
03:40PM 38.0081 -77.0386 29° Northeast 432 497 37,900 -1,500 Descending Washington Center
03:41PM 38.1133 -76.9667 28° Northeast 432 497 36,400 -1,560 Descending Washington Center
03:42PM 38.2247 -76.8869 29° Northeast 443 510 34,900 -1,620 Descending Washington Center
03:43PM 38.3444 -76.8042 28° Northeast 443 510 33,200 -1,560 Descending Washington Center
03:44PM 38.4556 -76.7292 28° Northeast 443 510 31,800 -1,440 Descending Washington Center
03:45PM 38.5647 -76.6511 29° Northeast 443 510 30,300 -1,500 Descending Washington Center
03:46PM 38.6781 -76.5703 29° Northeast 448 516 28,800 -1,500 Descending Washington Center
03:47PM 38.7850 -76.4944 29° Northeast 439 505 27,300 -1,740 Descending Washington Center
03:48PM 38.8897 -76.4211 29° Northeast 434 499 25,400 -1,680 Descending Washington Center
03:49PM 38.9903 -76.3500 29° Northeast 423 487 24,000 -720 Descending Washington Center
03:50PM 39.0928 -76.2761 29° Northeast 416 479 24,000  Level Washington Center
03:51PM 39.1850 -76.1886 36° Northeast 416 479 24,000  Level Washington Center
03:52PM 39.2769 -76.0875 40° Northeast 421 484 24,000 -960 Level Washington Center
03:53PM 39.3711 -75.9969 37° Northeast 426 490 22,100 -1,920 Descending Washington Center
03:54PM 39.4589 -75.9142 36° Northeast 414 476 20,100 -2,040 Descending Washington Center
03:55PM 39.6000 -75.7833 36° Northeast 397 457 16,900 -2,100 Descending Philadelphia TRACON
03:56PM 39.6833 -75.7000 38° Northeast 388 447 14,900 -1,860 Descending Philadelphia TRACON
03:57PM 39.7667 -75.6167 38° Northeast 370 426 13,200 -960 Descending Philadelphia TRACON
03:58PM 39.8500 -75.5500 32° Northeast 367 422 13,000 -120 Descending Philadelphia TRACON
03:59PM 39.9500 -75.4667 33° Northeast 372 428 13,000  Level Philadelphia TRACON
04:00PM 40.0167 -75.3833 44° Northeast 368 423 13,000  Level Philadelphia TRACON
04:01PM 40.1000 -75.3167 31° Northeast 369 425 13,000 -300 Level Philadelphia TRACON
04:02PM 40.1833 -75.2333 37° Northeast 340 391 12,400 -1,260 Descending Philadelphia TRACON
04:04PM 40.3000 -75.1333 33° Northeast 358 412 9,700 -1,860 Descending New York TRACON
04:05PM 40.3667 -75.0333 49° Northeast 334 384 7,700 -1,380 Descending New York TRACON
04:06PM 40.4167 -74.9500 52° Northeast 299 344 7,000 -900 Descending New York TRACON
04:07PM 40.4833 -74.8833 37° Northeast 291 335 5,900 -1,320 Descending New York TRACON
04:08PM 40.5167 -74.7833 66° East 284 327 4,400 -900 Descending New York TRACON
04:09PM 40.5833 -74.7333 30° Northeast 282 325 4,100 -240 Descending New York TRACON
04:10PM 40.6500 -74.6833 30° Northeast 268 308 4,000 -60 Descending New York TRACON
04:11PM 40.7167 -74.6500 21° North 269 310 4,000  Level New York TRACON
04:12PM 40.7833 -74.6667 349° North 232 267 4,100  Climbing New York TRACON
04:13PM 40.8500 -74.6667 360° North 233 268 4,000 -60 Descending New York TRACON
04:14PM 40.9167 -74.6667 360° North 230 265 4,000  Level New York TRACON
04:15PM 40.9833 -74.6667 360° North 235 270 4,100  Climbing New York TRACON
04:16PM 41.0167 -74.6000 56° Northeast 217 250 4,000 -60 Descending New York TRACON
04:17PM 41.0667 -74.5500 37° Northeast 196 226 4,000  Level New York TRACON
04:18PM 41.0833 -74.4833 72° East 196 226 4,000 -60 Level New York TRACON
04:19PM 41.0833 -74.4167 90° East 194 223 3,900 -540 Descending New York TRACON
04:20PM 41.1000 -74.3500 72° East 194 223 3,000 -480 Descending New York TRACON
04:21PM 41.1167 -74.2833 72° East 196 226 3,000  Level New York TRACON
04:22PM 41.1000 -74.2167 108° East 188 216 3,000  Level New York TRACON
04:23PM 41.0833 -74.1500 108° East 190 219 3,000 -480 Level New York TRACON
04:24PM 41.0667 -74.0833 108° East 192 221 2,100 -480 Descending New York TRACON
04:25PM 41.0167 -74.0500 153° Southeast 176 203 2,000 -120 Descending New York TRACON